createdAt,value
2023-04-07T00:00:19.996Z,1014.2
2023-04-07T00:15:20.154Z,1014.2
2023-04-07T00:30:19.968Z,1014.2
2023-04-07T00:45:19.872Z,1014.2
2023-04-07T01:00:20.007Z,1014.2
2023-04-07T01:15:20.151Z,1014.2
2023-04-07T01:30:20.983Z,1014.2
2023-04-07T01:45:19.653Z,1014.2
2023-04-07T02:00:19.783Z,1014.2
2023-04-07T02:15:20.794Z,1014.2
2023-04-07T02:30:19.784Z,1014.2
2023-04-07T02:45:20.252Z,1014.3
2023-04-07T03:00:20.241Z,1014.4
2023-04-07T03:15:19.976Z,1014.4
2023-04-07T03:30:20.030Z,1014.4
2023-04-07T03:45:20.095Z,1014.5
2023-04-07T04:02:47.351Z,1014.7
2023-04-07T04:15:19.558Z,1014.8
2023-04-07T04:30:20.041Z,1014.8
2023-04-07T04:45:20.044Z,1015
2023-04-07T05:00:20.317Z,1015.1
2023-04-07T05:15:24.615Z,1015.2
2023-04-07T05:30:19.395Z,1015.3
2023-04-07T05:45:20.706Z,1015.4
2023-04-07T06:00:19.881Z,1015.6
2023-04-07T06:15:19.499Z,1015.8
2023-04-07T06:30:20.290Z,1016
2023-04-07T06:45:19.638Z,1016.1
2023-04-07T07:00:20.368Z,1016.2
2023-04-07T07:15:19.919Z,1016.3
2023-04-07T07:30:20.180Z,1016.4
2023-04-07T07:45:19.800Z,1016.6
2023-04-07T08:00:25.802Z,1016.7
2023-04-07T08:15:20.600Z,1016.8
2023-04-07T08:30:19.807Z,1016.9
2023-04-07T08:45:20.160Z,1016.9
2023-04-07T09:00:21.618Z,1016.9
2023-04-07T09:15:19.436Z,1017
2023-04-07T09:30:19.868Z,1017.1
2023-04-07T09:45:40.346Z,1016.9
2023-04-07T10:00:20.502Z,1016.9
2023-04-07T10:15:20.114Z,1016.9
2023-04-07T10:30:19.775Z,1016.9
2023-04-07T10:45:19.486Z,1017
2023-04-07T11:00:21.101Z,1017.1
2023-04-07T11:15:19.471Z,1017.2
2023-04-07T11:30:21.023Z,1017.2
2023-04-07T11:45:19.748Z,1017.2
2023-04-07T12:00:22.003Z,1017.3
2023-04-07T12:15:19.789Z,1017.4
2023-04-07T12:30:20.856Z,1017.4
2023-04-07T12:45:20.414Z,1017.4
2023-04-07T13:00:21.071Z,1017.5
2023-04-07T13:15:37.004Z,1017.5
2023-04-07T13:30:23.088Z,1017.5
2023-04-07T13:48:29.783Z,1017.5
2023-04-07T14:00:21.368Z,1017.5
2023-04-07T14:15:21.817Z,1017.4
2023-04-07T14:30:19.816Z,1017.4
2023-04-07T14:45:21.017Z,1017.4
2023-04-07T15:00:20.422Z,1017.6
2023-04-07T15:15:21.335Z,1017.7
2023-04-07T15:30:19.917Z,1017.8
2023-04-07T15:45:20.594Z,1017.8
2023-04-07T16:00:20.232Z,1017.9
2023-04-07T16:15:41.090Z,1018
2023-04-07T16:30:20.727Z,1018.1
2023-04-07T16:45:19.539Z,1018.1
2023-04-07T17:00:20.250Z,1018.3
2023-04-07T17:19:44.666Z,1018.6
2023-04-07T17:30:20.329Z,1018.7
2023-04-07T17:45:22.999Z,1019
2023-04-07T18:00:19.757Z,1019.1
2023-04-07T18:15:21.943Z,1019.2
2023-04-07T18:30:19.563Z,1019.2
2023-04-07T18:45:19.933Z,1019.4
2023-04-07T19:00:38.170Z,1019.5
2023-04-07T19:15:28.481Z,1019.5
2023-04-07T19:30:21.357Z,1019.6
2023-04-07T19:45:22.969Z,1019.8
2023-04-07T20:00:25.638Z,1019.8
2023-04-07T20:15:20.668Z,1019.9
2023-04-07T20:30:20.054Z,1019.8
2023-04-07T20:45:20.542Z,1019.8
2023-04-07T21:00:20.214Z,1019.8
2023-04-07T21:15:20.418Z,1019.8
2023-04-07T21:30:22.356Z,1019.8
2023-04-07T21:45:20.071Z,1019.9
2023-04-07T22:00:23.249Z,1019.8
2023-04-07T22:15:19.694Z,1019.8
2023-04-07T22:30:20.348Z,1019.9
2023-04-07T22:45:20.032Z,1019.9
2023-04-07T23:00:24.129Z,1020
2023-04-07T23:15:18.983Z,1020
2023-04-07T23:30:20.140Z,1019.9
2023-04-07T23:45:20.878Z,1020
